MiSS Edmay — WDC3055 — position and weather

sailwx.info

Track history (hours):
 
Tides and Currents Weather Stations Pressure Air Temp Water Temp Dewpoint Dewpoint Depression Visibility Wind Speed Wind Dir Waves Ship Positions

MiSS Edmay

Owner: CENTRAL BOAT RENTALS, BERWICK, LA. More information available from US FCC via Universal Licensing System and Coast Guard Vessel Documentation Center.

Last reported at 2017-Sep-04 05:29 UTC. Time now 2017-Sep-21 12:31 UTC.
Position N 29°37' W 092°17'.
Warning: this ship's position is 17 days out of date.

Length 22 m; draft 3 m.

Type: Tug. MMSI: 367002070.

Date/timePositionNaut miles runAvg speedWind from/ knotsBaromVisibWave heightAir tempDewpointWater temp
2017-Sep-04 05:29N 29°37' W 092°17'4 6.5
2017-Sep-04 04:52N 29°40' W 092°15'2 6.8
2017-Sep-04 04:31N 29°43' W 092°15'3 6.3
2017-Sep-04 04:01N 29°45' W 092°12'3 6.6
2017-Sep-04 03:31N 29°47' W 092°09'3 6.7
2017-Sep-04 03:00N 29°48' W 092°05'  
2017-Aug-25 08:21N 29°50' W 091°60'3 7.3
2017-Aug-25 08:00N 29°49' W 092°03'4 7.1
2017-Aug-25 07:30N 29°48' W 092°07'3 6.6
2017-Aug-25 07:00N 29°47' W 092°10'2 3.9
2017-Aug-25 06:29N 29°47' W 092°12'2 3.2
2017-Aug-25 06:00N 29°48' W 092°14'  
Track history (hours):
 
Tides and Currents Weather Stations Pressure Air Temp Water Temp Dewpoint Dewpoint Depression Visibility Wind Speed Wind Dir Waves Ship Positions

MiSS Edmay

Owner: CENTRAL BOAT RENTALS, BERWICK, LA. More information available from US FCC via Universal Licensing System and Coast Guard Vessel Documentation Center.

Last reported at 2017-Sep-04 05:29 UTC. Time now 2017-Sep-21 12:31 UTC.
Position N 29°37' W 092°17'.
Warning: this ship's position is 17 days out of date.

Length 22 m; draft 3 m.

Type: Tug. MMSI: 367002070.

Date/timePositionNaut miles runAvg speedWind from/ knotsBaromVisibWave heightAir tempDewpointWater temp
2017-Sep-04 05:29N 29°37' W 092°17'4 6.5
2017-Sep-04 04:52N 29°40' W 092°15'2 6.8
2017-Sep-04 04:31N 29°43' W 092°15'3 6.3
2017-Sep-04 04:01N 29°45' W 092°12'3 6.6
2017-Sep-04 03:31N 29°47' W 092°09'3 6.7
2017-Sep-04 03:00N 29°48' W 092°05'  
2017-Aug-25 08:21N 29°50' W 091°60'3 7.3
2017-Aug-25 08:00N 29°49' W 092°03'4 7.1
2017-Aug-25 07:30N 29°48' W 092°07'3 6.6
2017-Aug-25 07:00N 29°47' W 092°10'2 3.9
2017-Aug-25 06:29N 29°47' W 092°12'2 3.2
2017-Aug-25 06:00N 29°48' W 092°14'  

Dump ship's entire track history